Avalon — PBSF — position and weather

sailwx.info

Track history (hours):
 
Tides and Currents Weather Stations Pressure Air Temp Water Temp Dewpoint Dewpoint Depression Visibility Wind Speed Wind Dir Waves Ship Positions

Avalon

Last reported at 2016-Feb-13 01:34 UTC. Time now 2016-Feb-13 02:32 UTC.
Position N 58°36' E 016°12'.

Length 89 m; draft 5.2 m.

Type: Cargo ship. MMSI: 246578000.

Date/timePositionNaut miles runAvg speedWind from/ knotsBaromVisibWave heightAir tempDewpointWater temp
2016-Feb-13 01:34N 58°36' E 016°12'0 0.0
2016-Feb-13 00:31N 58°36' E 016°12'0 0.0
2016-Feb-12 23:34N 58°36' E 016°12'0 0.0
2016-Feb-12 22:31N 58°36' E 016°12'0 0.0
2016-Feb-12 21:33N 58°36' E 016°12'0 0.0
2016-Feb-12 20:34N 58°36' E 016°12'0 0.0
2016-Feb-12 19:33N 58°36' E 016°12'0 0.0
2016-Feb-12 18:33N 58°36' E 016°12'0 0.0
2016-Feb-12 17:28N 58°36' E 016°12'0 0.0
2016-Feb-12 16:33N 58°36' E 016°12'0 0.0
2016-Feb-12 15:33N 58°36' E 016°12'63 3.1
2016-Feb-11 19:23N 57°43' E 017°20'6 7.8
2016-Feb-11 18:34N 57°37' E 017°19'8 8.0
2016-Feb-11 17:34N 57°29' E 017°18'8 8.0
2016-Feb-11 16:34N 57°21' E 017°17'8 7.9
2016-Feb-11 15:34N 57°13' E 017°15'9 8.8
2016-Feb-11 14:33N 57°04' E 017°11'96 8.6
2016-Feb-11 03:23N 55°43' E 015°41'9 9.6
2016-Feb-11 02:27N 55°39' E 015°27'9 9.9
2016-Feb-11 01:33N 55°34' E 015°13'1010.1
2016-Feb-11 00:33N 55°30' E 014°57'1010.0
2016-Feb-10 23:34N 55°25' E 014°42'10 9.5
2016-Feb-10 22:33N 55°18' E 014°30'10 9.8
2016-Feb-10 21:34N 55°10' E 014°20'10 9.9
2016-Feb-10 20:33N 55°03' E 014°09'10 9.6
2016-Feb-10 19:33N 54°59' E 013°53'1010.0
2016-Feb-10 18:33N 54°56' E 013°37'31 9.5
2016-Feb-10 15:18N 54°45' E 012°46'7 9.4
2016-Feb-10 14:34N 54°41' E 012°37'12 9.9
2016-Feb-10 13:18N 54°34' E 012°19'710.1
2016-Feb-10 12:34N 54°27' E 012°14'9 9.3
2016-Feb-10 11:33N 54°25' E 011°58'10 9.8
2016-Feb-10 10:34N 54°26' E 011°42'10 9.7
2016-Feb-10 09:34N 54°30' E 011°27'10 9.8
2016-Feb-10 08:34N 54°34' E 011°11'1010.0
2016-Feb-10 07:34N 54°34' E 010°54'1010.1
2016-Feb-10 06:34N 54°33' E 010°37'11 9.8
2016-Feb-10 05:29N 54°29' E 010°19'9 9.6
2016-Feb-10 04:34N 54°22' E 010°11'2 1.9
2016-Feb-10 03:34N 54°22' E 010°07'7 7.4
2016-Feb-10 02:33N 54°21' E 009°55'6 6.0
2016-Feb-10 01:34N 54°20' E 009°45'31 6.2
2016-Feb-09 20:31N 53°56' E 009°12'2 2.3
2016-Feb-09 19:31N 53°54' E 009°09'0 0.0
2016-Feb-09 18:33N 53°54' E 009°09'1 1.0
2016-Feb-09 17:33N 53°53' E 009°08'4 3.6
2016-Feb-09 16:33N 53°52' E 009°02'6 6.5
2016-Feb-09 15:33N 53°50' E 008°52'7 7.3
2016-Feb-09 14:33N 53°54' E 008°41'8 7.9
2016-Feb-09 13:33N 53°58' E 008°30'9 9.0
2016-Feb-09 12:33N 53°59' E 008°15'10 9.6
2016-Feb-09 11:33N 53°58' E 007°58'1010.1
2016-Feb-09 10:33N 53°56' E 007°42'1010.1
2016-Feb-09 09:33N 53°54' E 007°25'1010.2
2016-Feb-09 08:33N 53°51' E 007°08'1010.4
2016-Feb-09 07:33N 53°48' E 006°51'1010.2
2016-Feb-09 06:33N 53°46' E 006°35'1010.1
2016-Feb-09 05:33N 53°43' E 006°18'10 9.8
2016-Feb-09 04:33N 53°40' E 006°02'10 9.6
2016-Feb-09 03:33N 53°37' E 005°47'9 9.3
2016-Feb-09 02:33N 53°34' E 005°32'9 9.3
2016-Feb-09 01:33N 53°32' E 005°17'9 9.3
2016-Feb-09 00:33N 53°28' E 005°02'9 9.1
2016-Feb-08 23:32N 53°25' E 004°48'8 8.0
2016-Feb-08 22:32N 53°19' E 004°40'8 8.6
2016-Feb-08 21:33N 53°11' E 004°33'9 8.7
2016-Feb-08 20:33N 53°04' E 004°26'9 8.7
2016-Feb-08 19:33N 52°56' E 004°19'9 8.9
2016-Feb-08 18:31N 52°48' E 004°12'9110.1
2016-Feb-08 09:34N 51°41' E 002°32'8 8.2
2016-Feb-08 08:33N 51°34' E 002°24'8 7.9
2016-Feb-08 07:33N 51°28' E 002°16'8 8.2
2016-Feb-08 06:33N 51°21' E 002°09'9 9.0
2016-Feb-08 05:33N 51°13' E 002°02'10 9.7
2016-Feb-08 04:33N 51°08' E 001°49'1010.4
2016-Feb-08 03:33N 51°00' E 001°38'1111.1
2016-Feb-08 02:32N 50°51' E 001°27'313 6.4
2016-Feb-06 01:28N 51°39' W 006°48'8 8.2
2016-Feb-06 00:33N 51°47' W 006°51'8 8.4
2016-Feb-05 23:33N 51°55' W 006°54'8 8.4
2016-Feb-05 22:33N 52°03' W 006°56'8 7.5
2016-Feb-05 21:33N 52°11' W 006°56'6 5.7
2016-Feb-05 20:29N 52°16' W 007°02'0 0.0
2016-Feb-05 19:26N 52°16' W 007°02'0 0.0
2016-Feb-05 18:32N 52°16' W 007°02'0 0.0
2016-Feb-05 17:32N 52°16' W 007°02'0 0.0
2016-Feb-05 16:29N 52°16' W 007°02'0 0.0
2016-Feb-05 15:32N 52°16' W 007°02'0 0.0
2016-Feb-05 14:29N 52°16' W 007°02'0 0.0
2016-Feb-05 13:32N 52°16' W 007°02'0 0.0
2016-Feb-05 12:32N 52°16' W 007°02'0 0.0
2016-Feb-05 11:29N 52°16' W 007°02'0 0.0
2016-Feb-05 10:29N 52°16' W 007°02'0 0.0
2016-Feb-05 09:29N 52°16' W 007°02'0 0.0
2016-Feb-05 08:29N 52°16' W 007°02'0 0.0
2016-Feb-05 07:29N 52°16' W 007°02'0 0.0
2016-Feb-05 06:29N 52°16' W 007°02'0 0.0
2016-Feb-05 05:29N 52°16' W 007°02'0 0.0
2016-Feb-05 04:26N 52°16' W 007°02'0 0.0
2016-Feb-05 03:29N 52°16' W 007°02'0 0.0
2016-Feb-05 02:29N 52°16' W 007°02'0 0.0
2016-Feb-05 01:29N 52°16' W 007°02'0 0.0
2016-Feb-05 00:29N 52°16' W 007°02'0 0.0
2016-Feb-04 23:29N 52°16' W 007°02'0 0.0
2016-Feb-04 22:32N 52°16' W 007°02'0 0.0
2016-Feb-04 21:29N 52°16' W 007°02'0 0.0
2016-Feb-04 20:20N 52°16' W 007°02'0 0.0
2016-Feb-04 19:29N 52°16' W 007°02'0 0.0
2016-Feb-04 18:29N 52°16' W 007°02'0 0.0
2016-Feb-04 17:29N 52°16' W 007°02'0 0.0
2016-Feb-04 16:29N 52°16' W 007°02'0 0.0
2016-Feb-04 15:29N 52°16' W 007°02'0 0.0
2016-Feb-04 14:32N 52°16' W 007°02'0 0.0
2016-Feb-04 13:32N 52°16' W 007°02'0 0.0
2016-Feb-04 12:32N 52°16' W 007°02'0 0.0
2016-Feb-04 11:29N 52°16' W 007°02'0 0.0
2016-Feb-04 10:32N 52°16' W 007°02'0 0.0
2016-Feb-04 09:29N 52°16' W 007°02'0 0.0
2016-Feb-04 08:32N 52°16' W 007°02'0 0.0
2016-Feb-04 07:32N 52°16' W 007°02'0 0.0
2016-Feb-04 06:29N 52°16' W 007°02'0 0.0
2016-Feb-04 05:29N 52°16' W 007°02'0 0.0
2016-Feb-04 04:32N 52°16' W 007°02'0 0.0
2016-Feb-04 03:29N 52°16' W 007°02'0 0.0
2016-Feb-04 02:32N 52°16' W 007°02'0 0.0
2016-Feb-04 01:26N 52°16' W 007°02'0 0.0
2016-Feb-04 00:29N 52°16' W 007°02'0 0.0
2016-Feb-03 23:29N 52°16' W 007°02'0 0.0
2016-Feb-03 22:29N 52°16' W 007°02'0 0.0
2016-Feb-03 21:29N 52°16' W 007°02'0 0.0
2016-Feb-03 20:29N 52°16' W 007°02'0 0.0
2016-Feb-03 19:29N 52°16' W 007°02'0 0.0
2016-Feb-03 18:32N 52°16' W 007°02'0 0.0
2016-Feb-03 17:26N 52°16' W 007°02'0 0.0
2016-Feb-03 16:29N 52°16' W 007°02'0 0.0
2016-Feb-03 15:32N 52°16' W 007°02'0 0.0
2016-Feb-03 14:29N 52°16' W 007°02'0 0.0
2016-Feb-03 13:29N 52°16' W 007°02'0 0.1
2016-Feb-03 12:34N 52°16' W 007°02'6 6.2
2016-Feb-03 11:33N 52°10' W 006°56'6 6.4
2016-Feb-03 10:34N 52°05' W 006°51'11 8.8
2016-Feb-03 09:17N 52°03' W 006°33'  
Track history (hours):
 
Tides and Currents Weather Stations Pressure Air Temp Water Temp Dewpoint Dewpoint Depression Visibility Wind Speed Wind Dir Waves Ship Positions

Avalon

Last reported at 2016-Feb-13 01:34 UTC. Time now 2016-Feb-13 02:32 UTC.
Position N 58°36' E 016°12'.

Length 89 m; draft 5.2 m.

Type: Cargo ship. MMSI: 246578000.

Date/timePositionNaut miles runAvg speedWind from/ knotsBaromVisibWave heightAir tempDewpointWater temp
2016-Feb-13 01:34N 58°36' E 016°12'0 0.0
2016-Feb-13 00:31N 58°36' E 016°12'0 0.0
2016-Feb-12 23:34N 58°36' E 016°12'0 0.0
2016-Feb-12 22:31N 58°36' E 016°12'0 0.0
2016-Feb-12 21:33N 58°36' E 016°12'0 0.0
2016-Feb-12 20:34N 58°36' E 016°12'0 0.0
2016-Feb-12 19:33N 58°36' E 016°12'0 0.0
2016-Feb-12 18:33N 58°36' E 016°12'0 0.0
2016-Feb-12 17:28N 58°36' E 016°12'0 0.0
2016-Feb-12 16:33N 58°36' E 016°12'0 0.0
2016-Feb-12 15:33N 58°36' E 016°12'63 3.1
2016-Feb-11 19:23N 57°43' E 017°20'6 7.8
2016-Feb-11 18:34N 57°37' E 017°19'8 8.0
2016-Feb-11 17:34N 57°29' E 017°18'8 8.0
2016-Feb-11 16:34N 57°21' E 017°17'8 7.9
2016-Feb-11 15:34N 57°13' E 017°15'9 8.8
2016-Feb-11 14:33N 57°04' E 017°11'96 8.6
2016-Feb-11 03:23N 55°43' E 015°41'9 9.6
2016-Feb-11 02:27N 55°39' E 015°27'9 9.9
2016-Feb-11 01:33N 55°34' E 015°13'1010.1
2016-Feb-11 00:33N 55°30' E 014°57'1010.0
2016-Feb-10 23:34N 55°25' E 014°42'10 9.5
2016-Feb-10 22:33N 55°18' E 014°30'10 9.8
2016-Feb-10 21:34N 55°10' E 014°20'10 9.9
2016-Feb-10 20:33N 55°03' E 014°09'10 9.6
2016-Feb-10 19:33N 54°59' E 013°53'1010.0
2016-Feb-10 18:33N 54°56' E 013°37'31 9.5
2016-Feb-10 15:18N 54°45' E 012°46'7 9.4
2016-Feb-10 14:34N 54°41' E 012°37'12 9.9
2016-Feb-10 13:18N 54°34' E 012°19'710.1
2016-Feb-10 12:34N 54°27' E 012°14'9 9.3
2016-Feb-10 11:33N 54°25' E 011°58'10 9.8
2016-Feb-10 10:34N 54°26' E 011°42'10 9.7
2016-Feb-10 09:34N 54°30' E 011°27'10 9.8
2016-Feb-10 08:34N 54°34' E 011°11'1010.0
2016-Feb-10 07:34N 54°34' E 010°54'1010.1
2016-Feb-10 06:34N 54°33' E 010°37'11 9.8
2016-Feb-10 05:29N 54°29' E 010°19'9 9.6
2016-Feb-10 04:34N 54°22' E 010°11'2 1.9
2016-Feb-10 03:34N 54°22' E 010°07'7 7.4
2016-Feb-10 02:33N 54°21' E 009°55'6 6.0
2016-Feb-10 01:34N 54°20' E 009°45'31 6.2
2016-Feb-09 20:31N 53°56' E 009°12'2 2.3
2016-Feb-09 19:31N 53°54' E 009°09'0 0.0
2016-Feb-09 18:33N 53°54' E 009°09'1 1.0
2016-Feb-09 17:33N 53°53' E 009°08'4 3.6
2016-Feb-09 16:33N 53°52' E 009°02'6 6.5
2016-Feb-09 15:33N 53°50' E 008°52'7 7.3
2016-Feb-09 14:33N 53°54' E 008°41'8 7.9
2016-Feb-09 13:33N 53°58' E 008°30'9 9.0
2016-Feb-09 12:33N 53°59' E 008°15'10 9.6
2016-Feb-09 11:33N 53°58' E 007°58'1010.1
2016-Feb-09 10:33N 53°56' E 007°42'1010.1
2016-Feb-09 09:33N 53°54' E 007°25'1010.2
2016-Feb-09 08:33N 53°51' E 007°08'1010.4
2016-Feb-09 07:33N 53°48' E 006°51'1010.2
2016-Feb-09 06:33N 53°46' E 006°35'1010.1
2016-Feb-09 05:33N 53°43' E 006°18'10 9.8
2016-Feb-09 04:33N 53°40' E 006°02'10 9.6
2016-Feb-09 03:33N 53°37' E 005°47'9 9.3
2016-Feb-09 02:33N 53°34' E 005°32'9 9.3
2016-Feb-09 01:33N 53°32' E 005°17'9 9.3
2016-Feb-09 00:33N 53°28' E 005°02'9 9.1
2016-Feb-08 23:32N 53°25' E 004°48'8 8.0
2016-Feb-08 22:32N 53°19' E 004°40'8 8.6
2016-Feb-08 21:33N 53°11' E 004°33'9 8.7
2016-Feb-08 20:33N 53°04' E 004°26'9 8.7
2016-Feb-08 19:33N 52°56' E 004°19'9 8.9
2016-Feb-08 18:31N 52°48' E 004°12'9110.1
2016-Feb-08 09:34N 51°41' E 002°32'8 8.2
2016-Feb-08 08:33N 51°34' E 002°24'8 7.9
2016-Feb-08 07:33N 51°28' E 002°16'8 8.2
2016-Feb-08 06:33N 51°21' E 002°09'9 9.0
2016-Feb-08 05:33N 51°13' E 002°02'10 9.7
2016-Feb-08 04:33N 51°08' E 001°49'1010.4
2016-Feb-08 03:33N 51°00' E 001°38'1111.1
2016-Feb-08 02:32N 50°51' E 001°27'313 6.4
2016-Feb-06 01:28N 51°39' W 006°48'8 8.2
2016-Feb-06 00:33N 51°47' W 006°51'8 8.4
2016-Feb-05 23:33N 51°55' W 006°54'8 8.4
2016-Feb-05 22:33N 52°03' W 006°56'8 7.5
2016-Feb-05 21:33N 52°11' W 006°56'6 5.7
2016-Feb-05 20:29N 52°16' W 007°02'0 0.0
2016-Feb-05 19:26N 52°16' W 007°02'0 0.0
2016-Feb-05 18:32N 52°16' W 007°02'0 0.0
2016-Feb-05 17:32N 52°16' W 007°02'0 0.0
2016-Feb-05 16:29N 52°16' W 007°02'0 0.0
2016-Feb-05 15:32N 52°16' W 007°02'0 0.0
2016-Feb-05 14:29N 52°16' W 007°02'0 0.0
2016-Feb-05 13:32N 52°16' W 007°02'0 0.0
2016-Feb-05 12:32N 52°16' W 007°02'0 0.0
2016-Feb-05 11:29N 52°16' W 007°02'0 0.0
2016-Feb-05 10:29N 52°16' W 007°02'0 0.0
2016-Feb-05 09:29N 52°16' W 007°02'0 0.0
2016-Feb-05 08:29N 52°16' W 007°02'0 0.0
2016-Feb-05 07:29N 52°16' W 007°02'0 0.0
2016-Feb-05 06:29N 52°16' W 007°02'0 0.0
2016-Feb-05 05:29N 52°16' W 007°02'0 0.0
2016-Feb-05 04:26N 52°16' W 007°02'0 0.0
2016-Feb-05 03:29N 52°16' W 007°02'0 0.0
2016-Feb-05 02:29N 52°16' W 007°02'0 0.0
2016-Feb-05 01:29N 52°16' W 007°02'0 0.0
2016-Feb-05 00:29N 52°16' W 007°02'0 0.0
2016-Feb-04 23:29N 52°16' W 007°02'0 0.0
2016-Feb-04 22:32N 52°16' W 007°02'0 0.0
2016-Feb-04 21:29N 52°16' W 007°02'0 0.0
2016-Feb-04 20:20N 52°16' W 007°02'0 0.0
2016-Feb-04 19:29N 52°16' W 007°02'0 0.0
2016-Feb-04 18:29N 52°16' W 007°02'0 0.0
2016-Feb-04 17:29N 52°16' W 007°02'0 0.0
2016-Feb-04 16:29N 52°16' W 007°02'0 0.0
2016-Feb-04 15:29N 52°16' W 007°02'0 0.0
2016-Feb-04 14:32N 52°16' W 007°02'0 0.0
2016-Feb-04 13:32N 52°16' W 007°02'0 0.0
2016-Feb-04 12:32N 52°16' W 007°02'0 0.0
2016-Feb-04 11:29N 52°16' W 007°02'0 0.0
2016-Feb-04 10:32N 52°16' W 007°02'0 0.0
2016-Feb-04 09:29N 52°16' W 007°02'0 0.0
2016-Feb-04 08:32N 52°16' W 007°02'0 0.0
2016-Feb-04 07:32N 52°16' W 007°02'0 0.0
2016-Feb-04 06:29N 52°16' W 007°02'0 0.0
2016-Feb-04 05:29N 52°16' W 007°02'0 0.0
2016-Feb-04 04:32N 52°16' W 007°02'0 0.0
2016-Feb-04 03:29N 52°16' W 007°02'0 0.0
2016-Feb-04 02:32N 52°16' W 007°02'0 0.0
2016-Feb-04 01:26N 52°16' W 007°02'0 0.0
2016-Feb-04 00:29N 52°16' W 007°02'0 0.0
2016-Feb-03 23:29N 52°16' W 007°02'0 0.0
2016-Feb-03 22:29N 52°16' W 007°02'0 0.0
2016-Feb-03 21:29N 52°16' W 007°02'0 0.0
2016-Feb-03 20:29N 52°16' W 007°02'0 0.0
2016-Feb-03 19:29N 52°16' W 007°02'0 0.0
2016-Feb-03 18:32N 52°16' W 007°02'0 0.0
2016-Feb-03 17:26N 52°16' W 007°02'0 0.0
2016-Feb-03 16:29N 52°16' W 007°02'0 0.0
2016-Feb-03 15:32N 52°16' W 007°02'0 0.0
2016-Feb-03 14:29N 52°16' W 007°02'0 0.0
2016-Feb-03 13:29N 52°16' W 007°02'0 0.1
2016-Feb-03 12:34N 52°16' W 007°02'6 6.2
2016-Feb-03 11:33N 52°10' W 006°56'6 6.4
2016-Feb-03 10:34N 52°05' W 006°51'11 8.8
2016-Feb-03 09:17N 52°03' W 006°33'  

Dump ship's entire track history